createdAt,value
2019-02-17T00:00:54.654Z,12.80
2019-02-17T00:01:54.643Z,12.80
2019-02-17T00:02:54.639Z,12.80
2019-02-17T00:03:54.619Z,12.20
2019-02-17T00:04:54.629Z,13.20
2019-02-17T00:05:54.596Z,13.10
2019-02-17T00:06:54.584Z,12.60
2019-02-17T00:07:54.579Z,12.60
2019-02-17T00:08:54.564Z,12.70
2019-02-17T00:09:54.599Z,12.70
2019-02-17T00:10:54.548Z,12.60
2019-02-17T00:11:54.522Z,13.20
2019-02-17T00:12:54.519Z,13.40
2019-02-17T00:13:54.527Z,14.10
2019-02-17T00:14:54.489Z,13.40
2019-02-17T00:15:54.486Z,14.40
2019-02-17T00:16:54.464Z,13.50
2019-02-17T00:17:54.455Z,14.10
2019-02-17T00:18:54.479Z,14.10
2019-02-17T00:19:54.459Z,14.90
2019-02-17T00:20:54.526Z,14.80
2019-02-17T00:21:55.035Z,14.10
2019-02-17T00:22:54.416Z,14.50
2019-02-17T00:23:54.397Z,14.50
2019-02-17T00:24:54.395Z,14.30
2019-02-17T00:25:54.383Z,14.60
2019-02-17T00:26:54.572Z,14.60
2019-02-17T00:27:54.403Z,15.50
2019-02-17T00:28:59.529Z,16.20
2019-02-17T00:29:55.328Z,15.30
2019-02-17T00:30:54.348Z,14.60
2019-02-17T00:31:54.338Z,14.30
2019-02-17T00:32:54.298Z,15.50
2019-02-17T00:33:54.290Z,16.50
2019-02-17T00:34:54.274Z,15.70
2019-02-17T00:35:54.272Z,16.70
2019-02-17T00:36:54.253Z,16.90
2019-02-17T00:37:54.252Z,15.90
2019-02-17T00:38:54.240Z,17.50
2019-02-17T00:39:54.225Z,16.70
2019-02-17T00:40:54.225Z,16.60
2019-02-17T00:41:54.208Z,17.20
2019-02-17T00:42:54.192Z,16.80
2019-02-17T00:43:54.250Z,17.10
2019-02-17T00:44:54.301Z,16.50
2019-02-17T00:45:54.180Z,16.00
2019-02-17T00:46:54.237Z,15.70
2019-02-17T00:47:54.144Z,16.30
2019-02-17T00:48:54.211Z,15.70
2019-02-17T00:49:54.122Z,15.40
2019-02-17T00:50:54.238Z,16.30
2019-02-17T00:51:54.272Z,15.80
2019-02-17T00:52:54.106Z,15.70
2019-02-17T00:53:54.167Z,16.20
2019-02-17T00:54:54.086Z,16.40
2019-02-17T00:55:54.054Z,16.20
2019-02-17T00:56:54.037Z,16.70
2019-02-17T00:57:54.018Z,15.90
2019-02-17T00:58:54.046Z,15.40
2019-02-17T00:59:54.002Z,17.00
2019-02-17T01:00:54.003Z,16.70
2019-02-17T01:01:53.986Z,16.10
2019-02-17T01:02:53.974Z,15.30
2019-02-17T01:03:54.030Z,15.50
2019-02-17T01:04:53.954Z,14.80
2019-02-17T01:05:53.947Z,15.50
2019-02-17T01:06:53.975Z,15.70
2019-02-17T01:07:53.916Z,16.50
2019-02-17T01:08:53.910Z,15.60
2019-02-17T01:09:53.926Z,16.30
2019-02-17T01:10:53.889Z,16.40
2019-02-17T01:11:53.863Z,15.90
2019-02-17T01:12:53.868Z,16.60
2019-02-17T01:13:53.856Z,16.00
2019-02-17T01:14:53.848Z,15.40
2019-02-17T01:15:53.834Z,16.00
2019-02-17T01:16:53.819Z,15.40
2019-02-17T01:17:53.801Z,15.90
2019-02-17T01:18:53.791Z,15.60
2019-02-17T01:19:53.781Z,16.00
2019-02-17T01:20:53.775Z,16.40
2019-02-17T01:21:53.767Z,15.60
2019-02-17T01:22:53.745Z,16.00
2019-02-17T01:23:53.744Z,15.70
2019-02-17T01:24:53.719Z,15.40
2019-02-17T01:25:53.719Z,15.20
2019-02-17T01:26:53.748Z,15.40
2019-02-17T01:27:53.723Z,15.70
2019-02-17T01:28:53.679Z,16.00
2019-02-17T01:29:53.682Z,15.50
2019-02-17T01:30:53.658Z,15.90
2019-02-17T01:31:53.657Z,15.70
2019-02-17T01:32:53.636Z,15.90
2019-02-17T01:33:53.638Z,14.90
2019-02-17T01:34:53.609Z,15.80
2019-02-17T01:35:53.612Z,15.80
2019-02-17T01:36:53.591Z,15.70
2019-02-17T01:37:53.579Z,15.40
2019-02-17T01:38:53.585Z,14.70
2019-02-17T01:39:53.562Z,14.10
2019-02-17T01:40:53.544Z,14.60
2019-02-17T01:41:53.547Z,15.00
2019-02-17T01:42:53.531Z,14.10
2019-02-17T01:43:53.606Z,15.00
2019-02-17T01:44:53.499Z,14.40
2019-02-17T01:45:53.497Z,14.60
2019-02-17T01:46:53.481Z,14.60
2019-02-17T01:47:53.466Z,14.10
2019-02-17T01:48:53.465Z,14.50
2019-02-17T01:49:53.441Z,14.50
2019-02-17T01:50:53.440Z,15.60
2019-02-17T01:51:53.423Z,15.30
2019-02-17T01:52:53.413Z,15.50
2019-02-17T01:53:53.402Z,14.80
2019-02-17T01:54:53.398Z,15.00
2019-02-17T01:55:53.382Z,14.50
2019-02-17T01:56:53.375Z,15.00
2019-02-17T01:57:53.363Z,14.50
2019-02-17T01:58:53.342Z,14.40
2019-02-17T01:59:53.336Z,13.80
2019-02-17T02:00:53.349Z,13.20
2019-02-17T02:01:53.319Z,13.50
2019-02-17T02:02:53.317Z,13.90
2019-02-17T02:03:53.294Z,13.30
2019-02-17T02:04:53.279Z,13.70
2019-02-17T02:05:53.268Z,13.20
2019-02-17T02:06:53.258Z,12.70
2019-02-17T02:07:53.241Z,14.20
2019-02-17T02:08:53.241Z,13.80
2019-02-17T02:09:53.244Z,13.90
2019-02-17T02:10:53.214Z,13.40
2019-02-17T02:11:53.204Z,13.30
2019-02-17T02:12:53.190Z,13.60
2019-02-17T02:13:53.184Z,13.40
2019-02-17T02:14:53.187Z,12.80
2019-02-17T02:15:53.263Z,12.10
2019-02-17T02:16:53.144Z,12.40
2019-02-17T02:17:53.142Z,12.70
2019-02-17T02:18:53.142Z,12.70
2019-02-17T02:19:53.141Z,12.20
2019-02-17T02:20:53.115Z,13.10
2019-02-17T02:21:53.108Z,12.30
2019-02-17T02:22:53.106Z,12.50
2019-02-17T02:23:53.083Z,11.70
2019-02-17T02:24:53.061Z,11.90
2019-02-17T02:25:53.042Z,11.80
2019-02-17T02:26:53.075Z,12.40
2019-02-17T02:27:53.020Z,12.20
2019-02-17T02:28:53.020Z,12.70
2019-02-17T02:29:53.019Z,12.10
2019-02-17T02:30:52.989Z,11.60
2019-02-17T02:31:52.982Z,12.10
2019-02-17T02:32:53.072Z,12.00
2019-02-17T02:33:52.967Z,11.30
2019-02-17T02:34:52.960Z,12.10
2019-02-17T02:35:52.949Z,13.20
2019-02-17T02:36:52.926Z,12.00
2019-02-17T02:37:52.920Z,11.40
2019-02-17T02:38:52.905Z,11.60
2019-02-17T02:39:52.892Z,12.00
2019-02-17T02:40:52.891Z,12.40
2019-02-17T02:41:52.873Z,11.40
2019-02-17T02:42:52.860Z,11.20
2019-02-17T02:43:52.878Z,11.30
2019-02-17T02:44:52.835Z,12.30
2019-02-17T02:45:52.836Z,11.70
2019-02-17T02:46:52.811Z,12.00
2019-02-17T02:47:52.808Z,11.60
2019-02-17T02:48:52.791Z,11.60
2019-02-17T02:49:52.794Z,11.10
2019-02-17T02:50:53.315Z,12.00
2019-02-17T02:51:52.757Z,11.00
2019-02-17T02:52:52.772Z,11.50
2019-02-17T02:53:52.740Z,11.70
2019-02-17T02:54:52.734Z,12.00
2019-02-17T02:55:52.772Z,11.40
2019-02-17T02:56:52.704Z,11.50
2019-02-17T02:57:52.698Z,11.10
2019-02-17T02:58:52.738Z,11.70
2019-02-17T02:59:52.899Z,11.40
2019-02-17T03:01:43.854Z,11.80
2019-02-17T03:02:43.832Z,11.20
2019-02-17T03:03:45.963Z,11.60
2019-02-17T03:04:43.803Z,12.10
2019-02-17T03:05:43.797Z,11.60
2019-02-17T03:06:43.777Z,11.70
2019-02-17T03:07:43.778Z,11.80
2019-02-17T03:08:43.785Z,11.20
2019-02-17T03:09:43.743Z,12.40
2019-02-17T03:10:43.737Z,11.80
2019-02-17T03:11:43.727Z,12.20
2019-02-17T03:12:43.721Z,11.10
2019-02-17T03:13:43.713Z,11.30
2019-02-17T03:14:43.691Z,11.60
2019-02-17T03:15:43.678Z,11.40
2019-02-17T03:16:43.667Z,11.50
2019-02-17T03:17:43.658Z,11.40
2019-02-17T03:18:43.651Z,11.40
2019-02-17T03:19:43.653Z,10.80
2019-02-17T03:20:43.621Z,11.50
2019-02-17T03:21:43.618Z,11.00
2019-02-17T03:22:43.603Z,11.00
2019-02-17T03:23:43.587Z,10.80
2019-02-17T03:24:43.597Z,11.20
2019-02-17T03:25:45.293Z,11.30
2019-02-17T03:26:43.555Z,11.30
2019-02-17T03:27:43.548Z,11.40
2019-02-17T03:28:43.543Z,11.00
2019-02-17T03:29:43.523Z,11.60
2019-02-17T03:30:43.520Z,11.70
2019-02-17T03:31:43.501Z,11.50
2019-02-17T03:32:43.494Z,10.50
2019-02-17T03:33:43.508Z,11.00
2019-02-17T03:34:43.480Z,11.10
2019-02-17T03:35:44.535Z,12.40
2019-02-17T03:36:43.481Z,11.20
2019-02-17T03:37:43.440Z,11.50
2019-02-17T03:38:43.424Z,11.30
2019-02-17T03:39:43.416Z,11.20
2019-02-17T03:40:43.408Z,10.40
2019-02-17T03:41:43.399Z,11.20
2019-02-17T03:42:43.380Z,12.00
2019-02-17T03:43:43.370Z,10.80
2019-02-17T03:44:43.360Z,11.50
2019-02-17T03:45:43.351Z,11.00
2019-02-17T03:46:43.343Z,10.50
2019-02-17T03:47:43.349Z,10.90
2019-02-17T03:48:43.317Z,10.40
2019-02-17T03:49:43.304Z,10.80
2019-02-17T03:50:43.302Z,11.10
2019-02-17T03:51:43.286Z,10.80
2019-02-17T03:52:43.278Z,10.10
2019-02-17T03:53:43.264Z,10.70
2019-02-17T03:54:43.243Z,10.90
2019-02-17T03:55:43.234Z,10.30
2019-02-17T03:56:43.227Z,10.50
2019-02-17T03:57:43.227Z,11.00
2019-02-17T03:58:43.209Z,10.50
2019-02-17T03:59:43.209Z,10.90
2019-02-17T04:00:43.182Z,11.50
2019-02-17T04:01:43.171Z,10.50
2019-02-17T04:02:43.167Z,11.00
2019-02-17T04:03:43.159Z,10.60
2019-02-17T04:04:43.149Z,10.80
2019-02-17T04:05:43.127Z,10.60
2019-02-17T04:06:43.119Z,10.90
2019-02-17T04:07:43.103Z,10.30
2019-02-17T04:08:43.143Z,11.00
2019-02-17T04:09:43.091Z,10.90
2019-02-17T04:10:43.086Z,10.40
2019-02-17T04:11:43.059Z,10.50
2019-02-17T04:12:43.055Z,10.50
2019-02-17T04:13:43.037Z,10.00
2019-02-17T04:14:43.060Z,10.00
2019-02-17T04:15:43.016Z,10.20
2019-02-17T04:16:43.011Z,10.50
2019-02-17T04:17:42.998Z,9.80
2019-02-17T04:18:42.979Z,10.20
2019-02-17T04:19:42.970Z,10.40
2019-02-17T04:20:43.039Z,10.70
2019-02-17T04:21:42.960Z,10.50
2019-02-17T04:22:42.938Z,9.70
2019-02-17T04:23:42.932Z,10.80
2019-02-17T04:24:42.915Z,10.50
2019-02-17T04:25:42.910Z,10.90
2019-02-17T04:26:42.905Z,10.60
2019-02-17T04:27:42.892Z,10.70
2019-02-17T04:28:42.871Z,10.10
2019-02-17T04:29:42.863Z,9.90
2019-02-17T04:30:42.858Z,10.30
2019-02-17T04:31:42.847Z,10.30
2019-02-17T04:32:42.830Z,10.30
2019-02-17T04:33:42.842Z,10.20
2019-02-17T04:34:42.807Z,10.20
2019-02-17T04:35:42.792Z,10.00
2019-02-17T04:36:49.932Z,9.90
2019-02-17T04:38:24.452Z,9.90
2019-02-17T04:39:31.574Z,10.00
2019-02-17T04:41:06.099Z,10.30
2019-02-17T04:42:14.716Z,10.60
2019-02-17T04:43:48.265Z,9.40
2019-02-17T04:44:55.373Z,9.80
2019-02-17T04:46:29.879Z,9.70
2019-02-17T04:47:29.873Z,9.90
2019-02-17T04:48:29.861Z,10.40
2019-02-17T04:49:29.900Z,9.70
2019-02-17T04:50:29.850Z,10.60
2019-02-17T04:51:29.823Z,10.20
2019-02-17T04:52:29.831Z,9.80
2019-02-17T04:53:29.805Z,9.80
2019-02-17T04:54:29.798Z,9.60
2019-02-17T04:55:29.793Z,9.90
2019-02-17T04:56:29.783Z,10.50
2019-02-17T04:57:29.760Z,10.20
2019-02-17T04:58:29.768Z,9.90
2019-02-17T04:59:29.737Z,9.50
2019-02-17T05:00:39.856Z,10.60
2019-02-17T05:01:30.718Z,9.80
2019-02-17T05:02:29.711Z,10.00
2019-02-17T05:03:29.706Z,9.90
2019-02-17T05:04:29.676Z,10.30
2019-02-17T05:05:29.672Z,9.90
2019-02-17T05:06:29.662Z,9.80
2019-02-17T05:07:29.655Z,10.20
2019-02-17T05:08:29.636Z,10.10
2019-02-17T05:09:29.627Z,10.00
2019-02-17T05:10:29.613Z,9.60
2019-02-17T05:11:29.601Z,10.90
2019-02-17T05:12:29.590Z,10.30
2019-02-17T05:13:29.600Z,10.30
2019-02-17T05:14:29.574Z,10.90
2019-02-17T05:15:29.560Z,9.70
2019-02-17T05:16:29.546Z,10.40
2019-02-17T05:17:29.539Z,10.70
2019-02-17T05:18:29.531Z,9.70
2019-02-17T05:19:29.519Z,10.80
2019-02-17T05:20:29.504Z,10.20
2019-02-17T05:21:29.489Z,10.20
2019-02-17T05:22:29.483Z,10.50
2019-02-17T05:23:29.473Z,9.90
2019-02-17T05:24:29.467Z,10.00
2019-02-17T05:25:29.450Z,10.50
2019-02-17T05:26:29.434Z,10.90
2019-02-17T05:27:29.497Z,10.30
2019-02-17T05:28:29.499Z,9.90
2019-02-17T05:29:29.407Z,10.60
2019-02-17T05:30:29.402Z,10.40
2019-02-17T05:31:29.383Z,10.90
2019-02-17T05:32:29.371Z,11.60
2019-02-17T05:33:29.357Z,10.50
2019-02-17T05:34:29.357Z,10.80
2019-02-17T05:35:29.337Z,12.30
2019-02-17T05:36:29.384Z,12.20
2019-02-17T05:37:29.337Z,11.20
2019-02-17T05:38:29.302Z,12.20
2019-02-17T05:39:29.303Z,11.90
2019-02-17T05:40:29.274Z,12.50
2019-02-17T05:41:29.284Z,12.20
2019-02-17T05:42:29.260Z,12.30
2019-02-17T05:43:29.244Z,11.80
2019-02-17T05:44:29.236Z,12.50
2019-02-17T05:45:29.222Z,12.30
2019-02-17T05:46:29.216Z,12.40
2019-02-17T05:47:29.205Z,12.10
2019-02-17T05:48:29.530Z,11.90
2019-02-17T05:49:29.179Z,12.90
2019-02-17T05:50:29.170Z,11.80
2019-02-17T05:51:29.176Z,12.40
2019-02-17T05:52:29.151Z,12.10
2019-02-17T05:53:29.140Z,11.90
2019-02-17T05:54:29.130Z,12.70
2019-02-17T05:55:29.123Z,12.60
2019-02-17T05:56:29.104Z,12.80
2019-02-17T05:57:29.100Z,12.60
2019-02-17T05:58:29.093Z,12.10
2019-02-17T05:59:29.084Z,12.60
2019-02-17T06:00:29.066Z,11.10
2019-02-17T06:01:29.077Z,12.60
2019-02-17T06:02:29.094Z,11.90
2019-02-17T06:03:29.028Z,14.40
2019-02-17T06:04:29.028Z,12.40
2019-02-17T06:05:29.011Z,12.80
2019-02-17T06:06:29.006Z,13.20
2019-02-17T06:07:28.996Z,13.70
2019-02-17T06:08:28.986Z,13.00
2019-02-17T06:09:28.971Z,12.90
2019-02-17T06:10:29.096Z,13.80
2019-02-17T06:11:28.967Z,12.90
2019-02-17T06:12:28.940Z,12.90
2019-02-17T06:13:28.922Z,12.70
2019-02-17T06:14:28.913Z,13.00
2019-02-17T06:15:28.909Z,13.60
2019-02-17T06:16:28.899Z,12.30
2019-02-17T06:17:28.882Z,13.90
2019-02-17T06:18:28.865Z,13.70
2019-02-17T06:19:28.858Z,12.70
2019-02-17T06:20:28.850Z,13.40
2019-02-17T06:21:28.839Z,13.70
2019-02-17T06:22:28.843Z,13.30
2019-02-17T06:23:28.818Z,12.50
2019-02-17T06:24:28.801Z,13.10
2019-02-17T06:25:28.791Z,12.90
2019-02-17T06:26:28.777Z,12.50
2019-02-17T06:27:28.778Z,13.00
2019-02-17T06:28:28.756Z,12.50
2019-02-17T06:29:28.747Z,12.70
2019-02-17T06:30:28.744Z,12.30
2019-02-17T06:31:28.729Z,12.70
2019-02-17T06:32:28.722Z,12.00
2019-02-17T06:33:28.712Z,12.00
2019-02-17T06:34:28.696Z,11.80
2019-02-17T06:35:28.698Z,12.00
2019-02-17T06:36:28.670Z,11.90
2019-02-17T06:37:28.664Z,12.10
2019-02-17T06:38:28.655Z,11.00
2019-02-17T06:39:28.644Z,11.50
2019-02-17T06:40:28.670Z,11.70
2019-02-17T06:41:28.624Z,12.30
2019-02-17T06:42:28.605Z,12.30
2019-02-17T06:43:28.600Z,12.60
2019-02-17T06:44:28.599Z,13.10
2019-02-17T06:45:28.602Z,12.30
2019-02-17T06:46:28.605Z,12.20
2019-02-17T06:47:28.549Z,12.10
2019-02-17T06:48:28.540Z,12.70
2019-02-17T06:49:28.528Z,12.30
2019-02-17T06:50:28.527Z,11.70
2019-02-17T06:51:28.503Z,12.00
2019-02-17T06:52:28.492Z,11.30
2019-02-17T06:53:28.486Z,11.80
2019-02-17T06:54:28.475Z,12.80
2019-02-17T06:55:28.461Z,13.00
2019-02-17T06:56:28.455Z,15.20
2019-02-17T06:57:28.440Z,15.30
2019-02-17T06:58:28.425Z,16.00
2019-02-17T06:59:28.411Z,15.80
2019-02-17T07:00:28.408Z,17.20
2019-02-17T07:01:28.392Z,16.80
2019-02-17T07:02:28.374Z,16.60
2019-02-17T07:03:28.367Z,15.80
2019-02-17T07:04:28.356Z,17.50
2019-02-17T07:05:28.346Z,15.00
2019-02-17T07:06:28.341Z,15.20
2019-02-17T07:07:29.061Z,15.10
2019-02-17T07:08:28.316Z,14.90
2019-02-17T07:09:28.299Z,14.90
2019-02-17T07:10:28.300Z,14.70
2019-02-17T07:11:28.290Z,14.80
2019-02-17T07:12:28.272Z,15.60
2019-02-17T07:13:28.269Z,13.90
2019-02-17T07:14:28.246Z,14.50
2019-02-17T07:15:28.234Z,13.00
2019-02-17T07:16:28.222Z,13.70
2019-02-17T07:17:28.212Z,14.10
2019-02-17T07:18:28.207Z,13.80
2019-02-17T07:19:28.205Z,14.20
2019-02-17T07:20:28.179Z,14.80
2019-02-17T07:21:28.165Z,14.40
2019-02-17T07:22:28.155Z,15.60
2019-02-17T07:23:28.151Z,15.50
2019-02-17T07:24:28.143Z,15.00
2019-02-17T07:25:30.368Z,15.90
2019-02-17T07:26:28.115Z,16.30
2019-02-17T07:27:28.098Z,15.20
2019-02-17T07:28:28.106Z,15.30
2019-02-17T07:29:28.083Z,15.30
2019-02-17T07:30:28.076Z,15.40
2019-02-17T07:31:34.608Z,15.00
2019-02-17T07:32:29.048Z,15.40
2019-02-17T07:33:28.032Z,15.40
2019-02-17T07:34:28.028Z,15.80
2019-02-17T07:35:28.028Z,15.30
2019-02-17T07:36:28.010Z,16.10
2019-02-17T07:37:33.547Z,15.70
2019-02-17T07:38:29.047Z,16.00
2019-02-17T07:39:27.967Z,15.90
2019-02-17T07:40:27.956Z,15.40
2019-02-17T07:41:27.950Z,16.30
2019-02-17T07:42:27.938Z,16.00
2019-02-17T07:43:27.928Z,15.90
2019-02-17T07:44:27.913Z,14.90
2019-02-17T07:45:27.910Z,14.80
2019-02-17T07:46:27.892Z,14.50
2019-02-17T07:47:27.895Z,14.60
2019-02-17T07:48:27.868Z,14.60
2019-02-17T07:49:27.868Z,14.60
2019-02-17T07:50:27.854Z,14.30
2019-02-17T07:51:27.845Z,13.90
2019-02-17T07:52:27.826Z,13.20
2019-02-17T07:53:27.823Z,13.60
2019-02-17T07:54:27.813Z,13.80
2019-02-17T07:55:27.792Z,13.50
2019-02-17T07:56:27.779Z,13.40
2019-02-17T07:57:27.776Z,13.00
2019-02-17T07:58:27.774Z,13.10
2019-02-17T07:59:27.756Z,12.60
2019-02-17T08:00:27.739Z,13.10
2019-02-17T08:01:27.729Z,13.20
2019-02-17T08:02:27.716Z,13.60
2019-02-17T08:03:27.719Z,13.50
2019-02-17T08:04:27.695Z,12.90
2019-02-17T08:05:27.683Z,13.40
2019-02-17T08:06:27.673Z,12.20
2019-02-17T08:07:27.670Z,12.50
2019-02-17T08:08:27.652Z,13.30
2019-02-17T08:09:27.640Z,13.80
2019-02-17T08:10:27.634Z,12.70
2019-02-17T08:11:27.619Z,13.80
2019-02-17T08:12:27.603Z,13.10
2019-02-17T08:13:27.602Z,12.70
2019-02-17T08:14:27.584Z,13.50
2019-02-17T08:15:27.614Z,13.10
2019-02-17T08:16:27.567Z,12.80
2019-02-17T08:17:27.554Z,12.70
2019-02-17T08:18:27.538Z,14.30
2019-02-17T08:19:27.534Z,13.30
2019-02-17T08:20:27.521Z,12.90
2019-02-17T08:21:27.510Z,13.00
2019-02-17T08:22:27.498Z,13.80
2019-02-17T08:23:27.522Z,13.10
2019-02-17T08:24:27.485Z,13.20
2019-02-17T08:25:27.468Z,13.80
2019-02-17T08:26:27.449Z,12.90
2019-02-17T08:27:27.450Z,13.20
2019-02-17T08:28:27.425Z,12.80
2019-02-17T08:29:27.417Z,13.30
2019-02-17T08:30:27.410Z,13.10
2019-02-17T08:31:27.406Z,14.10
2019-02-17T08:32:27.390Z,13.80
2019-02-17T08:33:27.373Z,12.90
2019-02-17T08:34:27.366Z,13.60
2019-02-17T08:35:27.353Z,14.20
2019-02-17T08:36:27.338Z,14.80
2019-02-17T08:37:27.471Z,14.10
2019-02-17T08:38:27.333Z,14.10
2019-02-17T08:39:27.303Z,14.40
2019-02-17T08:40:27.301Z,15.00
2019-02-17T08:41:27.287Z,13.90
2019-02-17T08:42:27.279Z,13.50
2019-02-17T08:43:27.273Z,14.40
2019-02-17T08:44:27.281Z,13.60
2019-02-17T08:45:27.236Z,13.10
2019-02-17T08:46:27.231Z,14.40
2019-02-17T08:47:27.235Z,13.50
2019-02-17T08:48:27.213Z,14.20
2019-02-17T08:49:27.197Z,14.40
2019-02-17T08:50:27.191Z,14.20
2019-02-17T08:51:27.185Z,14.40
2019-02-17T08:52:27.158Z,14.40
2019-02-17T08:53:27.150Z,14.30
2019-02-17T08:54:27.137Z,14.30
2019-02-17T08:55:27.139Z,15.10
2019-02-17T08:56:27.113Z,13.80
2019-02-17T08:57:27.112Z,14.10
2019-02-17T08:58:27.091Z,15.80
2019-02-17T08:59:27.090Z,15.70
2019-02-17T09:00:27.074Z,15.10
2019-02-17T09:01:27.070Z,15.10
2019-02-17T09:02:27.050Z,15.80
2019-02-17T09:03:27.029Z,15.50
2019-02-17T09:04:27.028Z,15.50
2019-02-17T09:05:27.015Z,15.50
2019-02-17T09:06:27.021Z,14.50
2019-02-17T09:07:26.988Z,15.80
2019-02-17T09:08:26.991Z,16.90
2019-02-17T09:09:26.968Z,15.70
2019-02-17T09:10:26.959Z,16.10
2019-02-17T09:11:26.943Z,15.50
2019-02-17T09:12:26.939Z,16.20
2019-02-17T09:13:26.924Z,16.50
2019-02-17T09:14:26.967Z,15.80
2019-02-17T09:15:26.900Z,16.10
2019-02-17T09:16:26.903Z,17.20
2019-02-17T09:17:26.880Z,16.90
2019-02-17T09:18:26.876Z,17.00
2019-02-17T09:19:26.860Z,17.20
2019-02-17T09:20:33.990Z,18.50
2019-02-17T09:21:57.458Z,19.00
2019-02-17T09:22:57.429Z,20.10
2019-02-17T09:23:57.404Z,19.40
2019-02-17T09:24:57.395Z,18.70
2019-02-17T09:25:57.402Z,19.00
2019-02-17T09:26:57.390Z,19.00
2019-02-17T09:27:57.364Z,19.20
2019-02-17T09:28:57.362Z,19.90
2019-02-17T09:29:57.345Z,18.80
2019-02-17T09:30:57.332Z,18.60
2019-02-17T09:31:59.332Z,18.00
2019-02-17T09:32:57.307Z,18.00
2019-02-17T09:33:57.297Z,17.40
2019-02-17T09:34:57.291Z,19.10
2019-02-17T09:35:57.276Z,18.40
2019-02-17T09:36:57.257Z,18.50
2019-02-17T09:37:57.250Z,18.90
2019-02-17T09:38:57.240Z,18.60
2019-02-17T09:39:57.240Z,19.00
2019-02-17T09:40:57.255Z,17.80
2019-02-17T09:41:57.228Z,18.20
2019-02-17T09:42:57.200Z,18.50
2019-02-17T09:43:57.201Z,18.00
2019-02-17T09:44:57.175Z,19.00
2019-02-17T09:45:57.177Z,19.30
2019-02-17T09:46:57.161Z,18.60
2019-02-17T09:47:57.142Z,19.70
2019-02-17T09:48:57.135Z,18.80
2019-02-17T09:49:57.126Z,19.70
2019-02-17T09:50:57.111Z,18.40
2019-02-17T09:51:57.117Z,20.40
2019-02-17T09:52:57.089Z,19.60
2019-02-17T09:53:57.072Z,19.40
2019-02-17T09:54:57.064Z,19.20
2019-02-17T09:55:57.088Z,19.10
2019-02-17T09:56:57.052Z,18.90
2019-02-17T09:57:57.038Z,19.40
2019-02-17T09:58:57.029Z,19.20
2019-02-17T09:59:57.013Z,18.70
2019-02-17T10:00:57.006Z,19.40
2019-02-17T10:01:57.000Z,19.00
2019-02-17T10:02:56.989Z,19.20
2019-02-17T10:03:56.966Z,19.00
2019-02-17T10:04:56.963Z,20.20
2019-02-17T10:05:56.946Z,20.30
2019-02-17T10:06:56.942Z,20.50
2019-02-17T10:07:56.921Z,21.00
2019-02-17T10:08:56.913Z,20.50
2019-02-17T10:09:56.898Z,20.00
2019-02-17T10:10:56.884Z,20.20
2019-02-17T10:11:56.891Z,21.50
2019-02-17T10:12:56.868Z,20.80
2019-02-17T10:13:56.863Z,20.90
2019-02-17T10:14:56.868Z,21.00
2019-02-17T10:15:56.845Z,21.70
2019-02-17T10:16:56.817Z,22.20
2019-02-17T10:17:56.820Z,20.70
2019-02-17T10:18:56.804Z,21.40
2019-02-17T10:19:56.790Z,22.00
2019-02-17T10:20:56.775Z,23.40
2019-02-17T10:21:56.768Z,22.20
2019-02-17T10:22:56.753Z,22.80
2019-02-17T10:23:56.747Z,22.50
2019-02-17T10:24:56.743Z,22.20
2019-02-17T10:25:56.782Z,22.10
2019-02-17T10:26:56.714Z,22.00
2019-02-17T10:27:56.704Z,22.30
2019-02-17T10:28:56.687Z,22.90
2019-02-17T10:29:56.691Z,24.20
2019-02-17T10:30:56.671Z,23.20
2019-02-17T10:31:56.669Z,22.40
2019-02-17T10:32:56.647Z,23.10
2019-02-17T10:33:56.637Z,22.30
2019-02-17T10:34:56.619Z,23.80
2019-02-17T10:35:56.613Z,25.30
2019-02-17T10:36:56.613Z,24.70
2019-02-17T10:37:56.592Z,23.70
2019-02-17T10:38:58.420Z,26.00
2019-02-17T10:39:56.572Z,25.50
2019-02-17T10:40:56.566Z,24.90
2019-02-17T10:41:56.548Z,25.00
2019-02-17T10:42:56.550Z,25.10
2019-02-17T10:43:56.530Z,26.20
2019-02-17T10:44:56.516Z,25.40
2019-02-17T10:45:56.512Z,25.10
2019-02-17T10:46:56.503Z,25.30
2019-02-17T10:47:56.486Z,25.60
2019-02-17T10:48:56.475Z,26.40
2019-02-17T10:49:56.464Z,25.60
2019-02-17T10:50:56.450Z,25.10
2019-02-17T10:51:56.445Z,26.70
2019-02-17T10:52:56.423Z,26.40
2019-02-17T10:53:56.418Z,26.20
2019-02-17T10:54:56.427Z,27.10
2019-02-17T10:55:56.393Z,25.50
2019-02-17T10:56:56.382Z,25.70
2019-02-17T10:57:56.371Z,26.80
2019-02-17T10:58:56.370Z,25.90
2019-02-17T10:59:56.379Z,25.20
2019-02-17T11:00:56.352Z,25.10
2019-02-17T11:01:56.380Z,24.70
2019-02-17T11:02:56.313Z,25.10
2019-02-17T11:03:56.308Z,24.70
2019-02-17T11:04:56.297Z,25.30
2019-02-17T11:05:56.284Z,25.10
2019-02-17T11:06:56.274Z,24.20
2019-02-17T11:07:56.257Z,25.30
2019-02-17T11:08:56.255Z,24.10
2019-02-17T11:09:56.250Z,25.00
2019-02-17T11:10:56.245Z,25.90
2019-02-17T11:11:56.243Z,24.80
2019-02-17T11:12:56.204Z,25.00
2019-02-17T11:13:56.200Z,24.80
2019-02-17T11:14:56.187Z,24.20
2019-02-17T11:15:56.212Z,23.90
2019-02-17T11:16:56.175Z,24.90
2019-02-17T11:17:56.166Z,24.60
2019-02-17T11:18:56.145Z,25.40
2019-02-17T11:19:56.135Z,24.80
2019-02-17T11:20:56.133Z,24.40
2019-02-17T11:21:56.111Z,24.10
2019-02-17T11:22:56.102Z,23.60
2019-02-17T11:23:56.084Z,24.90
2019-02-17T11:24:57.741Z,24.00
2019-02-17T11:25:56.064Z,23.90
2019-02-17T11:26:56.058Z,25.30
2019-02-17T11:27:56.051Z,24.80
2019-02-17T11:28:56.031Z,24.20
2019-02-17T11:29:56.023Z,25.30
2019-02-17T11:30:56.005Z,24.70
2019-02-17T11:31:56.004Z,25.10
2019-02-17T11:32:58.168Z,24.20
2019-02-17T11:33:55.980Z,24.20
2019-02-17T11:34:55.969Z,23.90
2019-02-17T11:35:55.950Z,23.80
2019-02-17T11:36:55.947Z,23.80
2019-02-17T11:37:55.939Z,23.80
2019-02-17T11:38:55.921Z,24.20
2019-02-17T11:39:55.919Z,23.60
2019-02-17T11:40:55.911Z,22.90
2019-02-17T11:41:55.888Z,23.90
2019-02-17T11:42:55.890Z,24.00
2019-02-17T11:43:55.890Z,24.30
2019-02-17T11:44:55.860Z,23.40
2019-02-17T11:45:55.851Z,23.90
2019-02-17T11:46:55.831Z,23.20
2019-02-17T11:47:55.830Z,23.20
2019-02-17T11:48:55.810Z,24.60
2019-02-17T11:49:55.842Z,25.60
2019-02-17T11:50:55.792Z,22.40
2019-02-17T11:51:55.787Z,23.00
2019-02-17T11:52:55.771Z,23.00
2019-02-17T11:53:55.762Z,23.60
2019-02-17T11:54:55.746Z,23.40
2019-02-17T11:55:55.747Z,23.00
2019-02-17T11:56:55.735Z,22.80
2019-02-17T11:57:55.737Z,22.50
2019-02-17T11:58:55.703Z,22.10
2019-02-17T11:59:55.726Z,23.50
2019-02-17T12:00:55.693Z,23.70
2019-02-17T12:01:55.670Z,22.50
2019-02-17T12:02:55.660Z,24.00
2019-02-17T12:03:55.642Z,22.00
2019-02-17T12:04:55.637Z,21.80
2019-02-17T12:05:55.622Z,23.30
2019-02-17T12:06:55.624Z,21.90
2019-02-17T12:07:55.612Z,22.30
2019-02-17T12:08:55.597Z,22.90
2019-02-17T12:09:55.610Z,22.10
2019-02-17T12:10:55.581Z,22.60
2019-02-17T12:11:55.560Z,23.40
2019-02-17T12:12:55.557Z,22.50
2019-02-17T12:13:55.538Z,22.50
2019-02-17T12:14:55.547Z,23.50
2019-02-17T12:15:55.529Z,22.90
2019-02-17T12:16:55.520Z,23.20
2019-02-17T12:17:55.502Z,22.60
2019-02-17T12:18:55.492Z,22.50
2019-02-17T12:19:55.492Z,21.80
2019-02-17T12:20:55.458Z,22.80
2019-02-17T12:21:55.458Z,23.60
2019-02-17T12:22:55.438Z,22.40
2019-02-17T12:23:55.441Z,22.40
2019-02-17T12:24:55.430Z,23.30
2019-02-17T12:25:55.411Z,22.60
2019-02-17T12:26:55.390Z,23.10
2019-02-17T12:27:55.384Z,22.30
2019-02-17T12:28:55.372Z,23.30
2019-02-17T12:29:55.433Z,22.70
2019-02-17T12:30:55.360Z,22.40
2019-02-17T12:31:57.744Z,22.30
2019-02-17T12:32:55.324Z,22.30
2019-02-17T12:33:55.312Z,22.20
2019-02-17T12:34:55.306Z,22.80
2019-02-17T12:35:55.298Z,22.00
2019-02-17T12:36:55.297Z,21.50
2019-02-17T12:37:55.271Z,23.20
2019-02-17T12:38:55.274Z,23.20
2019-02-17T12:39:55.263Z,22.00
2019-02-17T12:40:55.240Z,23.30
2019-02-17T12:41:55.245Z,22.50
2019-02-17T12:42:55.217Z,22.20
2019-02-17T12:43:55.208Z,23.80
2019-02-17T12:44:57.035Z,23.10
2019-02-17T12:45:55.180Z,22.90
2019-02-17T12:46:55.173Z,22.10
2019-02-17T12:47:57.851Z,22.60
2019-02-17T12:48:55.153Z,22.00
2019-02-17T12:49:55.143Z,22.20
2019-02-17T12:50:55.131Z,21.70
2019-02-17T12:51:55.118Z,22.60
2019-02-17T12:52:55.113Z,21.70
2019-02-17T12:53:55.099Z,22.20
2019-02-17T12:54:55.097Z,22.00
2019-02-17T12:55:55.069Z,22.20
2019-02-17T12:56:55.086Z,20.80
2019-02-17T12:57:55.054Z,22.00